createdAt,value
2023-05-02T00:00:00.903Z,14.42
2023-05-02T00:02:29.341Z,14.40
2023-05-02T00:04:57.577Z,14.38
2023-05-02T00:07:26.610Z,14.36
2023-05-02T00:09:54.943Z,14.33
2023-05-02T00:12:24.261Z,14.32
2023-05-02T00:14:52.178Z,14.28
2023-05-02T00:17:20.489Z,14.25
2023-05-02T00:19:48.941Z,14.23
2023-05-02T00:22:17.017Z,14.20
2023-05-02T00:24:44.955Z,14.16
2023-05-02T00:27:12.912Z,14.12
2023-05-02T00:29:42.100Z,14.12
2023-05-02T00:32:09.902Z,14.07
2023-05-02T00:34:37.853Z,14.04
2023-05-02T00:37:05.664Z,14.00
2023-05-02T00:39:35.067Z,13.98
2023-05-02T00:42:03.426Z,13.95
2023-05-02T00:44:31.625Z,13.93
2023-05-02T00:47:02.801Z,13.93
2023-05-02T00:49:31.516Z,13.90
2023-05-02T00:51:59.856Z,13.89
2023-05-02T00:54:27.922Z,13.85
2023-05-02T00:56:55.758Z,13.83
2023-05-02T00:59:23.771Z,13.82
2023-05-02T01:02:02.234Z,13.83
2023-05-02T01:04:42.437Z,13.80
2023-05-02T01:07:24.004Z,13.79
2023-05-02T01:10:02.792Z,13.76
2023-05-02T01:12:39.336Z,13.75
2023-05-02T01:15:10.633Z,13.73
2023-05-02T01:17:39.994Z,13.72
2023-05-02T01:20:14.797Z,13.72
2023-05-02T01:22:43.276Z,13.69
2023-05-02T01:25:23.674Z,13.71
2023-05-02T01:28:01.589Z,13.70
2023-05-02T01:30:34.045Z,13.68
2023-05-02T01:33:04.235Z,13.64
2023-05-02T01:35:34.952Z,13.65
2023-05-02T01:38:04.187Z,13.62
2023-05-02T01:40:32.776Z,13.60
2023-05-02T01:43:04.321Z,13.59
2023-05-02T01:45:37.727Z,13.60
2023-05-02T01:48:08.868Z,13.58
2023-05-02T01:50:38.588Z,13.57
2023-05-02T01:53:09.554Z,13.57
2023-05-02T01:55:39.572Z,13.55
2023-05-02T01:58:08.517Z,13.55
2023-05-02T02:00:39.041Z,13.56
2023-05-02T02:03:07.521Z,13.53
2023-05-02T02:05:36.570Z,13.55
2023-05-02T02:08:04.901Z,13.53
2023-05-02T02:10:41.199Z,13.55
2023-05-02T02:13:16.947Z,13.54
2023-05-02T02:15:49.140Z,13.54
2023-05-02T02:18:22.256Z,13.53
2023-05-02T02:20:52.120Z,13.50
2023-05-02T02:23:27.098Z,13.52
2023-05-02T02:25:56.940Z,13.52
2023-05-02T02:28:25.066Z,13.51
2023-05-02T02:30:54.393Z,13.51
2023-05-02T02:33:26.247Z,13.49
2023-05-02T02:36:05.486Z,13.52
2023-05-02T02:38:43.059Z,13.51
2023-05-02T02:41:18.069Z,13.51
2023-05-02T02:43:59.548Z,13.52
2023-05-02T02:46:35.728Z,13.51
2023-05-02T02:49:16.388Z,13.53
2023-05-02T02:51:48.148Z,13.52
2023-05-02T02:54:30.344Z,13.54
2023-05-02T02:57:03.532Z,13.51
2023-05-02T02:59:35.351Z,13.54
2023-05-02T03:02:09.281Z,13.53
2023-05-02T03:04:40.272Z,13.55
2023-05-02T03:07:08.715Z,13.54
2023-05-02T03:09:43.280Z,13.57
2023-05-02T03:12:15.459Z,13.52
2023-05-02T03:14:44.888Z,13.52
2023-05-02T03:17:14.359Z,13.53
2023-05-02T03:19:43.242Z,13.52
2023-05-02T03:22:11.451Z,13.53
2023-05-02T03:24:39.294Z,13.52
2023-05-02T03:27:07.167Z,13.51
2023-05-02T03:29:41.065Z,13.51
2023-05-02T03:32:10.493Z,13.51
2023-05-02T03:34:41.828Z,13.53
2023-05-02T03:37:10.273Z,13.51
2023-05-02T03:39:38.141Z,13.51
2023-05-02T03:42:06.734Z,13.51
2023-05-02T03:44:34.544Z,13.51
2023-05-02T03:47:03.410Z,13.50
2023-05-02T03:49:36.938Z,13.49
2023-05-02T03:52:06.930Z,13.52
2023-05-02T03:54:36.721Z,13.50
2023-05-02T03:57:05.969Z,13.50
2023-05-02T03:59:35.281Z,13.52
2023-05-02T04:02:11.515Z,13.48
2023-05-02T04:04:43.960Z,13.47
2023-05-02T04:07:19.239Z,13.50
2023-05-02T04:09:51.255Z,13.48
2023-05-02T04:12:19.201Z,13.48
2023-05-02T04:14:49.813Z,13.47
2023-05-02T04:17:18.216Z,13.48
2023-05-02T04:19:49.188Z,13.47
2023-05-02T04:22:19.383Z,13.48
2023-05-02T04:24:52.619Z,13.46
2023-05-02T04:27:20.889Z,13.47
2023-05-02T04:29:49.854Z,13.47
2023-05-02T04:32:19.220Z,13.46
2023-05-02T04:34:48.394Z,13.46
2023-05-02T04:37:18.100Z,13.46
2023-05-02T04:39:48.720Z,13.49
2023-05-02T04:42:20.406Z,13.46
2023-05-02T04:44:59.495Z,13.46
2023-05-02T04:47:27.488Z,13.46
2023-05-02T04:49:55.660Z,13.46
2023-05-02T04:52:23.977Z,13.46
2023-05-02T04:54:53.570Z,13.47
2023-05-02T04:57:23.287Z,13.45
2023-05-02T04:59:55.781Z,13.44
2023-05-02T05:02:25.848Z,13.45
2023-05-02T05:04:54.907Z,13.44
2023-05-02T05:07:22.999Z,13.44
2023-05-02T05:09:54.777Z,13.46
2023-05-02T05:12:25.425Z,13.41
2023-05-02T05:14:53.585Z,13.43
2023-05-02T05:17:24.187Z,13.42
2023-05-02T05:20:03.638Z,13.45
2023-05-02T05:22:32.890Z,13.41
2023-05-02T05:25:02.404Z,13.41
2023-05-02T05:27:32.770Z,13.40
2023-05-02T05:30:01.107Z,13.39
2023-05-02T05:32:29.543Z,13.38
2023-05-02T05:34:58.018Z,13.39
2023-05-02T05:37:28.127Z,13.38
2023-05-02T05:39:57.994Z,13.37
2023-05-02T05:42:27.282Z,13.37
2023-05-02T05:44:59.608Z,13.34
2023-05-02T05:47:28.303Z,13.33
2023-05-02T05:49:57.035Z,13.34
2023-05-02T05:52:30.392Z,13.31
2023-05-02T05:55:01.018Z,13.31
2023-05-02T05:57:31.401Z,13.32
2023-05-02T05:59:59.465Z,13.29
2023-05-02T06:02:27.709Z,13.28
2023-05-02T06:04:56.985Z,13.27
2023-05-02T06:07:26.478Z,13.24
2023-05-02T06:09:54.525Z,13.23
2023-05-02T06:12:22.936Z,13.21
2023-05-02T06:14:52.626Z,13.21
2023-05-02T06:17:20.806Z,13.18
2023-05-02T06:19:50.453Z,13.18
2023-05-02T06:22:18.347Z,13.18
2023-05-02T06:24:46.170Z,13.17
2023-05-02T06:27:13.985Z,13.17
2023-05-02T06:29:41.788Z,13.16
2023-05-02T06:32:10.992Z,13.17
2023-05-02T06:34:38.774Z,13.11
2023-05-02T06:37:06.945Z,13.11
2023-05-02T06:39:34.745Z,13.09
2023-05-02T06:42:02.917Z,13.07
2023-05-02T06:44:31.497Z,13.07
2023-05-02T06:46:59.359Z,13.06
2023-05-02T06:49:28.697Z,13.08
2023-05-02T06:51:56.502Z,13.03
2023-05-02T06:54:24.322Z,13.03
2023-05-02T06:56:52.381Z,13.02
2023-05-02T06:59:20.201Z,13.03
2023-05-02T07:01:48.036Z,13.04
2023-05-02T07:04:15.873Z,13.03
2023-05-02T07:06:45.157Z,13.07
2023-05-02T07:09:12.976Z,13.05
2023-05-02T07:11:40.844Z,13.08
2023-05-02T07:14:08.605Z,13.07
2023-05-02T07:16:36.501Z,13.09
2023-05-02T07:19:06.612Z,13.09
2023-05-02T07:21:34.484Z,13.11
2023-05-02T07:24:03.741Z,13.14
2023-05-02T07:26:31.573Z,13.13
2023-05-02T07:28:59.350Z,13.14
2023-05-02T07:31:27.213Z,13.15
2023-05-02T07:33:55.098Z,13.15
2023-05-02T07:36:22.889Z,13.18
2023-05-02T07:38:51.096Z,13.17
2023-05-02T07:41:20.587Z,13.20
2023-05-02T07:43:48.377Z,13.18
2023-05-02T07:46:16.357Z,13.20
2023-05-02T07:48:44.338Z,13.21
2023-05-02T07:51:12.532Z,13.24
2023-05-02T07:53:40.466Z,13.25
2023-05-02T07:56:09.088Z,13.29
2023-05-02T07:58:38.372Z,13.29
2023-05-02T08:01:06.350Z,13.29
2023-05-02T08:03:34.307Z,13.28
2023-05-02T08:06:04.092Z,13.26
2023-05-02T08:08:32.015Z,13.24
2023-05-02T08:10:59.902Z,13.23
2023-05-02T08:13:28.361Z,13.21
2023-05-02T08:15:58.411Z,13.22
2023-05-02T08:18:26.659Z,13.18
2023-05-02T08:20:55.644Z,13.15
2023-05-02T08:23:23.445Z,13.15
2023-05-02T08:25:51.215Z,13.12
2023-05-02T08:28:19.752Z,13.09
2023-05-02T08:30:47.841Z,13.08
2023-05-02T08:33:17.096Z,13.08
2023-05-02T08:35:44.921Z,13.05
2023-05-02T08:38:12.711Z,13.04
2023-05-02T08:40:42.825Z,13.02
2023-05-02T08:43:12.863Z,13.02
2023-05-02T08:45:42.609Z,13.02
2023-05-02T08:48:12.157Z,12.99
2023-05-02T08:50:44.498Z,12.99
2023-05-02T08:53:14.715Z,12.96
2023-05-02T08:55:44.044Z,12.96
2023-05-02T08:58:13.977Z,12.94
2023-05-02T09:00:44.160Z,12.94
2023-05-02T09:03:24.982Z,12.97
2023-05-02T09:06:00.849Z,12.96
2023-05-02T09:08:28.928Z,12.94
2023-05-02T09:10:56.784Z,12.95
2023-05-02T09:13:32.054Z,13.00
2023-05-02T09:16:02.251Z,13.00
2023-05-02T09:18:31.980Z,13.04
2023-05-02T09:21:02.523Z,13.06
2023-05-02T09:23:34.895Z,13.11
2023-05-02T09:26:03.280Z,13.10
2023-05-02T09:28:42.042Z,13.17
2023-05-02T09:31:11.124Z,13.16
2023-05-02T09:33:40.112Z,13.17
2023-05-02T09:36:10.913Z,13.18
2023-05-02T09:38:39.696Z,13.15
2023-05-02T09:41:07.606Z,13.17
2023-05-02T09:43:35.418Z,13.15
2023-05-02T09:46:05.239Z,13.17
2023-05-02T09:48:34.368Z,13.21
2023-05-02T09:51:02.563Z,13.22
2023-05-02T09:53:31.870Z,13.27
2023-05-02T09:56:04.560Z,13.34
2023-05-02T09:58:32.558Z,13.36
2023-05-02T10:01:00.980Z,13.44
2023-05-02T10:03:30.346Z,13.51
2023-05-02T10:05:58.222Z,13.58
2023-05-02T10:08:32.080Z,13.65
2023-05-02T10:11:14.123Z,13.72
2023-05-02T10:13:44.212Z,13.76
2023-05-02T10:16:14.403Z,13.84
2023-05-02T10:18:48.283Z,13.90
2023-05-02T10:21:18.748Z,13.96
2023-05-02T10:23:46.718Z,14.00
2023-05-02T10:26:18.413Z,14.08
2023-05-02T10:28:46.808Z,14.09
2023-05-02T10:31:16.204Z,14.18
2023-05-02T10:33:44.553Z,14.23
2023-05-02T10:36:14.161Z,14.29
2023-05-02T10:38:43.270Z,14.32
2023-05-02T10:41:14.756Z,14.38
2023-05-02T10:43:49.158Z,14.42
2023-05-02T10:46:33.947Z,14.48
2023-05-02T10:49:03.750Z,14.52
2023-05-02T10:51:32.463Z,14.58
2023-05-02T10:54:22.960Z,14.65
2023-05-02T10:57:05.865Z,14.72
2023-05-02T10:59:36.165Z,14.45
2023-05-02T11:02:07.178Z,14.76
2023-05-02T11:05:01.663Z,14.86
2023-05-02T11:07:31.158Z,14.88
2023-05-02T11:10:26.285Z,14.90
2023-05-02T11:12:55.388Z,14.92
2023-05-02T11:15:59.152Z,14.93
2023-05-02T11:18:27.299Z,14.91
2023-05-02T11:21:28.755Z,14.95
2023-05-02T11:24:29.941Z,14.97
2023-05-02T11:27:30.969Z,14.96
2023-05-02T11:30:00.158Z,14.96
2023-05-02T11:33:08.516Z,14.96
2023-05-02T11:35:37.325Z,14.96
2023-05-02T11:38:06.564Z,14.99
2023-05-02T11:40:34.534Z,14.99
2023-05-02T11:43:13.232Z,15.01
2023-05-02T11:45:42.563Z,15.03
2023-05-02T11:48:14.494Z,15.07
2023-05-02T11:50:49.347Z,15.08
2023-05-02T11:53:19.838Z,15.09
2023-05-02T11:55:49.110Z,15.12
2023-05-02T11:58:18.694Z,15.13
2023-05-02T12:00:48.034Z,15.13
2023-05-02T12:03:29.583Z,15.14
2023-05-02T12:05:58.293Z,15.10
2023-05-02T12:08:28.243Z,15.10
2023-05-02T12:10:57.593Z,15.06
2023-05-02T12:13:26.854Z,15.07
2023-05-02T12:15:56.037Z,15.05
2023-05-02T12:18:27.163Z,15.04
2023-05-02T12:20:56.606Z,15.04
2023-05-02T12:23:26.281Z,15.05
2023-05-02T12:25:54.401Z,15.06
2023-05-02T12:28:24.005Z,15.07
2023-05-02T12:30:52.716Z,15.09
2023-05-02T12:33:20.808Z,15.10
2023-05-02T12:35:51.231Z,15.13
2023-05-02T12:38:22.941Z,15.16
2023-05-02T12:40:53.354Z,15.17
2023-05-02T12:43:21.935Z,15.22
2023-05-02T12:45:51.777Z,15.24
2023-05-02T12:48:26.565Z,15.29
2023-05-02T12:50:56.619Z,15.32
2023-05-02T12:53:41.476Z,15.35
2023-05-02T12:56:10.481Z,15.34
2023-05-02T12:58:45.775Z,15.41
2023-05-02T13:01:15.103Z,15.41
2023-05-02T13:03:43.955Z,15.45
2023-05-02T13:06:13.354Z,15.49
2023-05-02T13:08:41.510Z,15.48
2023-05-02T13:11:09.402Z,15.51
2023-05-02T13:13:37.281Z,15.54
2023-05-02T13:16:05.560Z,15.56
2023-05-02T13:18:33.569Z,15.57
2023-05-02T13:21:01.573Z,15.58
2023-05-02T13:23:30.847Z,15.61
2023-05-02T13:25:59.063Z,15.61
2023-05-02T13:28:26.961Z,15.63
2023-05-02T13:30:54.857Z,15.65
2023-05-02T13:33:22.645Z,15.66
2023-05-02T13:35:50.516Z,15.68
2023-05-02T13:38:18.383Z,15.71
2023-05-02T13:40:47.633Z,15.77
2023-05-02T13:43:15.689Z,15.77
2023-05-02T13:45:43.773Z,15.80
2023-05-02T13:48:11.674Z,15.82
2023-05-02T13:50:39.653Z,15.84
2023-05-02T13:53:07.529Z,15.85
2023-05-02T13:55:35.567Z,15.87
2023-05-02T13:58:05.311Z,15.89
2023-05-02T14:00:33.213Z,15.88
2023-05-02T14:03:01.304Z,15.88
2023-05-02T14:05:29.299Z,15.89
2023-05-02T14:07:57.245Z,15.89
2023-05-02T14:10:25.542Z,15.89
2023-05-02T14:12:53.868Z,15.92
2023-05-02T14:15:23.920Z,15.94
2023-05-02T14:17:52.068Z,15.92
2023-05-02T14:20:20.286Z,15.92
2023-05-02T14:22:48.302Z,15.94
2023-05-02T14:25:19.771Z,15.98
2023-05-02T14:27:47.591Z,15.96
2023-05-02T14:30:16.782Z,15.97
2023-05-02T14:32:46.437Z,15.98
2023-05-02T14:35:14.327Z,15.95
2023-05-02T14:37:44.990Z,15.95
2023-05-02T14:40:14.001Z,15.96
2023-05-02T14:42:42.132Z,15.93
2023-05-02T14:45:11.039Z,15.94
2023-05-02T14:47:38.974Z,15.93
2023-05-02T14:50:09.262Z,15.96
2023-05-02T14:52:37.242Z,15.95
2023-05-02T14:55:06.230Z,15.98
2023-05-02T14:57:34.162Z,15.98
2023-05-02T15:00:02.588Z,16.01
2023-05-02T15:02:30.839Z,16.02
2023-05-02T15:04:58.659Z,16.04
2023-05-02T15:07:28.737Z,16.09
2023-05-02T15:09:56.683Z,16.11
2023-05-02T15:12:25.808Z,16.12
2023-05-02T15:14:53.727Z,16.14
2023-05-02T15:17:22.291Z,16.15
2023-05-02T15:19:50.145Z,16.18
2023-05-02T15:22:18.331Z,16.18
2023-05-02T15:24:47.553Z,16.19
2023-05-02T15:27:15.816Z,16.16
2023-05-02T15:29:43.864Z,16.15
2023-05-02T15:32:11.761Z,16.13
2023-05-02T15:34:39.734Z,16.13
2023-05-02T15:37:08.153Z,16.11
2023-05-02T15:39:36.064Z,16.09
2023-05-02T15:42:07.843Z,16.08
2023-05-02T15:44:38.919Z,16.03
2023-05-02T15:47:08.573Z,16.01
2023-05-02T15:49:37.940Z,15.98
2023-05-02T15:52:06.190Z,15.95
2023-05-02T15:54:34.250Z,15.92
2023-05-02T15:57:02.652Z,15.88
2023-05-02T15:59:32.005Z,15.86
2023-05-02T16:01:59.901Z,15.80
2023-05-02T16:04:28.618Z,15.76
2023-05-02T16:06:56.685Z,15.71
2023-05-02T16:09:24.618Z,15.67
2023-05-02T16:11:52.469Z,15.65
2023-05-02T16:14:23.863Z,15.62
2023-05-02T16:16:53.154Z,15.57
2023-05-02T16:19:23.745Z,15.55
2023-05-02T16:21:51.610Z,15.51
2023-05-02T16:24:19.469Z,15.48
2023-05-02T16:26:47.325Z,15.46
2023-05-02T16:29:15.119Z,15.44
2023-05-02T16:31:44.537Z,15.42
2023-05-02T16:34:14.153Z,15.42
2023-05-02T16:36:42.504Z,15.39
2023-05-02T16:39:12.242Z,15.38
2023-05-02T16:41:40.702Z,15.35
2023-05-02T16:44:08.588Z,15.33
2023-05-02T16:46:36.856Z,15.30
2023-05-02T16:49:04.743Z,15.28
2023-05-02T16:51:34.009Z,15.27
2023-05-02T16:54:02.544Z,15.23
2023-05-02T16:56:30.504Z,15.21
2023-05-02T16:58:58.408Z,15.20
2023-05-02T17:01:26.466Z,15.19
2023-05-02T17:03:54.430Z,15.18
2023-05-02T17:06:22.997Z,15.16
2023-05-02T17:08:52.410Z,15.16
2023-05-02T17:11:20.960Z,15.13
2023-05-02T17:13:49.783Z,15.12
2023-05-02T17:16:18.031Z,15.11
2023-05-02T17:18:46.118Z,15.10
2023-05-02T17:21:14.257Z,15.09
2023-05-02T17:23:42.180Z,15.10
2023-05-02T17:26:15.547Z,15.10
2023-05-02T17:28:44.521Z,15.08
2023-05-02T17:31:13.014Z,15.09
2023-05-02T17:33:42.230Z,15.08
2023-05-02T17:36:10.597Z,15.07
2023-05-02T17:38:38.637Z,15.06
2023-05-02T17:41:06.819Z,15.06
2023-05-02T17:43:37.918Z,15.07
2023-05-02T17:46:09.106Z,15.05
2023-05-02T17:48:37.242Z,15.02
2023-05-02T17:51:07.020Z,15.00
2023-05-02T17:53:36.810Z,14.97
2023-05-02T17:56:05.394Z,14.96
2023-05-02T17:58:35.408Z,14.93
2023-05-02T18:01:09.603Z,14.93
2023-05-02T18:03:38.341Z,14.90
2023-05-02T18:06:06.654Z,14.86
2023-05-02T18:08:34.729Z,14.83
2023-05-02T18:11:03.263Z,14.79
2023-05-02T18:13:31.336Z,14.75
2023-05-02T18:15:59.593Z,14.70
2023-05-02T18:18:28.947Z,14.69
2023-05-02T18:20:56.850Z,14.65
2023-05-02T18:23:27.043Z,14.60
2023-05-02T18:25:55.677Z,14.56
2023-05-02T18:28:23.470Z,14.53
2023-05-02T18:30:51.381Z,14.49
2023-05-02T18:33:19.236Z,14.44
2023-05-02T18:35:49.583Z,14.42
2023-05-02T18:38:18.334Z,14.36
2023-05-02T18:40:46.519Z,14.30
2023-05-02T18:43:14.389Z,14.26
2023-05-02T18:45:44.438Z,14.22
2023-05-02T18:48:12.489Z,14.18
2023-05-02T18:50:40.443Z,14.12
2023-05-02T18:53:09.764Z,14.09
2023-05-02T18:55:37.613Z,14.02
2023-05-02T18:58:05.465Z,13.95
2023-05-02T19:00:36.255Z,13.89
2023-05-02T19:03:12.723Z,13.85
2023-05-02T19:05:41.145Z,13.77
2023-05-02T19:08:10.853Z,13.73
2023-05-02T19:10:39.109Z,13.65
2023-05-02T19:13:07.275Z,13.60
2023-05-02T19:15:35.427Z,13.55
2023-05-02T19:18:03.671Z,13.50
2023-05-02T19:20:31.687Z,13.45
2023-05-02T19:23:15.179Z,13.41
2023-05-02T19:25:48.272Z,13.37
2023-05-02T19:28:19.793Z,13.35
2023-05-02T19:30:48.021Z,13.28
2023-05-02T19:33:16.005Z,13.25
2023-05-02T19:35:44.270Z,13.23
2023-05-02T19:38:12.635Z,13.19
2023-05-02T19:40:40.909Z,13.17
2023-05-02T19:43:11.104Z,13.16
2023-05-02T19:45:39.791Z,13.10
2023-05-02T19:48:08.794Z,13.09
2023-05-02T19:50:38.320Z,13.06
2023-05-02T19:53:08.958Z,13.03
2023-05-02T19:55:40.195Z,13.00
2023-05-02T19:58:49.891Z,12.99
2023-05-02T20:01:36.571Z,12.90
2023-05-02T20:04:05.355Z,12.85
2023-05-02T20:06:34.524Z,12.80
2023-05-02T20:09:05.758Z,12.78
2023-05-02T20:11:34.165Z,12.74
2023-05-02T20:14:15.857Z,12.75
2023-05-02T20:17:49.309Z,12.68
2023-05-02T20:20:13.502Z,12.66
2023-05-02T20:22:41.768Z,12.63
2023-05-02T20:25:11.653Z,12.64
2023-05-02T20:27:40.182Z,12.61
2023-05-02T20:30:12.283Z,12.59
2023-05-02T20:32:40.425Z,12.53
2023-05-02T20:35:09.304Z,12.54
2023-05-02T20:37:37.644Z,12.49
2023-05-02T20:40:09.951Z,12.49
2023-05-02T20:42:41.456Z,12.43
2023-05-02T20:45:14.201Z,12.44
2023-05-02T20:47:42.330Z,12.13
2023-05-02T20:50:11.295Z,12.33
2023-05-02T20:52:39.762Z,12.34
2023-05-02T20:55:09.013Z,12.33
2023-05-02T20:57:37.278Z,12.29
2023-05-02T21:00:06.686Z,12.28
2023-05-02T21:02:36.113Z,12.26
2023-05-02T21:05:06.125Z,12.22
2023-05-02T21:07:34.372Z,12.16
2023-05-02T21:10:02.615Z,12.11
2023-05-02T21:12:31.216Z,12.09
2023-05-02T21:14:59.208Z,12.05
2023-05-02T21:17:28.598Z,12.02
2023-05-02T21:19:57.929Z,12.00
2023-05-02T21:22:27.033Z,11.96
2023-05-02T21:24:55.011Z,11.92
2023-05-02T21:27:24.964Z,11.89
2023-05-02T21:29:53.095Z,11.86
2023-05-02T21:32:21.250Z,11.85
2023-05-02T21:34:50.062Z,11.82
2023-05-02T21:37:19.437Z,11.83
2023-05-02T21:39:47.550Z,11.79
2023-05-02T21:42:15.677Z,11.78
2023-05-02T21:44:43.717Z,11.76
2023-05-02T21:47:11.790Z,11.73
2023-05-02T21:49:40.054Z,11.73
2023-05-02T21:52:08.039Z,11.70
2023-05-02T21:54:38.074Z,11.68
2023-05-02T21:57:06.993Z,11.65
2023-05-02T21:59:35.152Z,11.65
2023-05-02T22:02:03.208Z,11.61
2023-05-02T22:04:31.479Z,11.60
2023-05-02T22:06:59.744Z,11.57
2023-05-02T22:09:27.966Z,11.55
2023-05-02T22:11:57.900Z,11.54
2023-05-02T22:14:33.842Z,11.50
2023-05-02T22:17:09.498Z,11.47
2023-05-02T22:19:37.733Z,11.46
2023-05-02T22:22:05.821Z,11.44
2023-05-02T22:24:34.299Z,11.43
2023-05-02T22:27:03.952Z,11.43
2023-05-02T22:29:31.885Z,11.40
2023-05-02T22:31:59.859Z,11.38
2023-05-02T22:34:27.718Z,11.35
2023-05-02T22:36:55.514Z,11.34
2023-05-02T22:39:23.428Z,11.32
2023-05-02T22:41:51.284Z,11.31
2023-05-02T22:44:20.638Z,11.29
2023-05-02T22:46:49.005Z,11.26
2023-05-02T22:49:18.314Z,11.26
2023-05-02T22:51:46.676Z,11.24
2023-05-02T22:54:15.241Z,11.22
2023-05-02T22:56:43.412Z,11.20
2023-05-02T22:59:11.565Z,11.19
2023-05-02T23:01:41.379Z,11.17
2023-05-02T23:04:10.003Z,11.13
2023-05-02T23:06:38.005Z,11.10
2023-05-02T23:09:07.001Z,11.08
2023-05-02T23:11:34.986Z,11.04
2023-05-02T23:14:02.909Z,11.01
2023-05-02T23:16:30.984Z,10.99
2023-05-02T23:19:00.543Z,10.97
2023-05-02T23:21:29.126Z,10.94
2023-05-02T23:23:57.185Z,10.89
2023-05-02T23:26:25.225Z,10.86
2023-05-02T23:28:53.090Z,10.83
2023-05-02T23:31:21.128Z,10.82
2023-05-02T23:33:49.218Z,10.78
2023-05-02T23:36:18.559Z,10.75
2023-05-02T23:38:46.617Z,10.70
2023-05-02T23:41:14.441Z,10.66
2023-05-02T23:43:42.288Z,10.62
2023-05-02T23:46:10.522Z,10.57
2023-05-02T23:48:38.398Z,10.53
2023-05-02T23:51:06.418Z,10.49
2023-05-02T23:53:35.654Z,10.48
2023-05-02T23:56:03.837Z,10.43
2023-05-02T23:58:32.033Z,10.39
